createdAt,value
2023-02-20T00:00:15.603Z,8.94
2023-02-20T00:02:41.813Z,8.89
2023-02-20T00:05:08.005Z,8.86
2023-02-20T00:07:34.154Z,8.89
2023-02-20T00:10:00.292Z,8.92
2023-02-20T00:12:26.495Z,8.86
2023-02-20T00:14:52.638Z,8.85
2023-02-20T00:17:18.765Z,8.82
2023-02-20T00:19:44.894Z,8.80
2023-02-20T00:22:11.072Z,8.76
2023-02-20T00:24:37.237Z,8.77
2023-02-20T00:27:03.381Z,8.70
2023-02-20T00:29:29.546Z,8.73
2023-02-20T00:31:55.717Z,8.69
2023-02-20T00:34:21.945Z,8.74
2023-02-20T00:36:48.078Z,8.73
2023-02-20T00:39:14.280Z,8.59
2023-02-20T00:41:40.431Z,8.51
2023-02-20T00:44:06.556Z,8.44
2023-02-20T00:46:32.742Z,8.32
2023-02-20T00:48:58.937Z,8.04
2023-02-20T00:51:25.097Z,7.87
2023-02-20T00:53:51.224Z,7.70
2023-02-20T00:56:17.357Z,7.48
2023-02-20T00:58:43.533Z,7.28
2023-02-20T01:01:09.691Z,7.07
2023-02-20T01:03:35.847Z,6.88
2023-02-20T01:06:02.038Z,6.69
2023-02-20T01:08:28.234Z,6.50
2023-02-20T01:10:54.434Z,6.36
2023-02-20T01:13:20.594Z,6.37
2023-02-20T01:15:46.800Z,6.20
2023-02-20T01:18:12.962Z,6.10
2023-02-20T01:20:39.175Z,6.00
2023-02-20T01:23:05.324Z,5.89
2023-02-20T01:25:31.502Z,5.79
2023-02-20T01:27:57.634Z,5.69
2023-02-20T01:30:23.892Z,5.66
2023-02-20T01:32:50.147Z,5.68
2023-02-20T01:35:16.320Z,5.74
2023-02-20T01:37:42.516Z,5.72
2023-02-20T01:40:08.641Z,5.73
2023-02-20T01:42:34.823Z,5.74
2023-02-20T01:45:00.948Z,5.93
2023-02-20T01:47:27.130Z,6.01
2023-02-20T01:49:53.344Z,5.96
2023-02-20T01:52:19.465Z,5.84
2023-02-20T01:54:45.645Z,6.02
2023-02-20T01:57:11.792Z,5.96
2023-02-20T01:59:37.954Z,5.82
2023-02-20T02:02:04.200Z,5.67
2023-02-20T02:04:30.398Z,5.54
2023-02-20T02:06:56.584Z,5.38
2023-02-20T02:09:22.708Z,5.27
2023-02-20T02:11:48.912Z,5.23
2023-02-20T02:14:15.079Z,5.20
2023-02-20T02:16:41.223Z,5.45
2023-02-20T02:19:07.437Z,5.41
2023-02-20T02:21:33.615Z,5.45
2023-02-20T02:23:59.807Z,5.59
2023-02-20T02:26:25.975Z,5.60
2023-02-20T02:28:52.184Z,5.69
2023-02-20T02:31:18.495Z,5.80
2023-02-20T02:33:44.723Z,5.79
2023-02-20T02:36:11.169Z,5.79
2023-02-20T02:38:37.546Z,5.87
2023-02-20T02:41:03.851Z,5.78
2023-02-20T02:43:30.028Z,5.76
2023-02-20T02:45:56.245Z,5.68
2023-02-20T02:48:22.650Z,5.60
2023-02-20T02:50:48.822Z,5.45
2023-02-20T02:53:14.972Z,5.27
2023-02-20T02:55:41.169Z,5.13
2023-02-20T02:58:07.424Z,5.19
2023-02-20T03:00:33.580Z,4.99
2023-02-20T03:02:59.784Z,4.90
2023-02-20T03:05:25.968Z,4.79
2023-02-20T03:07:54.915Z,4.75
2023-02-20T03:10:21.105Z,4.75
2023-02-20T03:12:47.287Z,4.65
2023-02-20T03:15:13.510Z,4.64
2023-02-20T03:17:39.701Z,4.53
2023-02-20T03:20:05.857Z,4.49
2023-02-20T03:22:32.004Z,4.41
2023-02-20T03:24:58.170Z,4.34
2023-02-20T03:27:24.363Z,4.30
2023-02-20T03:29:50.514Z,4.23
2023-02-20T03:32:16.701Z,4.21
2023-02-20T03:34:42.853Z,4.24
2023-02-20T03:37:09.030Z,4.28
2023-02-20T03:39:35.175Z,4.33
2023-02-20T03:42:01.333Z,4.43
2023-02-20T03:44:27.460Z,4.38
2023-02-20T03:46:53.634Z,4.43
2023-02-20T03:49:19.808Z,4.60
2023-02-20T03:51:46.005Z,4.52
2023-02-20T03:54:12.197Z,4.50
2023-02-20T03:56:38.375Z,4.37
2023-02-20T03:59:04.571Z,4.35
2023-02-20T04:01:30.724Z,4.42
2023-02-20T04:03:56.897Z,4.36
2023-02-20T04:06:23.091Z,4.29
2023-02-20T04:08:49.218Z,4.34
2023-02-20T04:11:15.368Z,4.40
2023-02-20T04:13:41.487Z,4.64
2023-02-20T04:16:07.659Z,4.64
2023-02-20T04:18:33.835Z,4.70
2023-02-20T04:21:00.004Z,4.70
2023-02-20T04:23:26.121Z,4.78
2023-02-20T04:25:52.274Z,4.86
2023-02-20T04:28:18.421Z,4.92
2023-02-20T04:30:44.661Z,4.93
2023-02-20T04:33:10.958Z,4.77
2023-02-20T04:35:37.123Z,4.81
2023-02-20T04:38:03.247Z,4.80
2023-02-20T04:40:29.424Z,4.81
2023-02-20T04:42:55.548Z,4.72
2023-02-20T04:45:21.680Z,4.66
2023-02-20T04:47:47.855Z,4.64
2023-02-20T04:50:14.072Z,4.57
2023-02-20T04:52:40.243Z,4.70
2023-02-20T04:55:06.417Z,4.65
2023-02-20T04:57:32.635Z,4.62
2023-02-20T04:59:58.799Z,4.72
2023-02-20T05:02:24.946Z,4.58
2023-02-20T05:04:51.163Z,4.60
2023-02-20T05:07:17.359Z,4.45
2023-02-20T05:09:43.488Z,4.44
2023-02-20T05:12:09.626Z,4.38
2023-02-20T05:14:35.753Z,4.51
2023-02-20T05:17:03.029Z,4.52
2023-02-20T05:19:29.230Z,4.37
2023-02-20T05:21:55.355Z,4.23
2023-02-20T05:24:21.509Z,4.21
2023-02-20T05:26:47.672Z,4.17
2023-02-20T05:29:13.826Z,4.18
2023-02-20T05:31:40.094Z,4.12
2023-02-20T05:34:06.349Z,4.03
2023-02-20T05:36:32.553Z,3.94
2023-02-20T05:38:58.671Z,3.86
2023-02-20T05:41:24.792Z,3.84
2023-02-20T05:43:50.934Z,3.88
2023-02-20T05:46:17.143Z,3.88
2023-02-20T05:48:43.346Z,3.87
2023-02-20T05:51:09.536Z,3.82
2023-02-20T05:53:35.700Z,3.81
2023-02-20T05:56:01.896Z,3.72
2023-02-20T05:58:28.068Z,3.66
2023-02-20T06:00:54.249Z,3.60
2023-02-20T06:03:20.408Z,3.56
2023-02-20T06:05:46.620Z,3.61
2023-02-20T06:08:12.831Z,3.57
2023-02-20T06:10:38.989Z,3.63
2023-02-20T06:13:05.140Z,3.60
2023-02-20T06:15:31.334Z,3.57
2023-02-20T06:17:57.499Z,3.53
2023-02-20T06:20:23.645Z,3.53
2023-02-20T06:22:49.809Z,3.52
2023-02-20T06:25:15.987Z,3.49
2023-02-20T06:27:42.217Z,3.49
2023-02-20T06:30:08.388Z,3.45
2023-02-20T06:32:34.641Z,3.51
2023-02-20T06:35:00.819Z,3.56
2023-02-20T06:37:27.049Z,3.58
2023-02-20T06:39:53.254Z,3.59
2023-02-20T06:42:19.408Z,3.64
2023-02-20T06:44:45.608Z,3.65
2023-02-20T06:47:11.789Z,3.71
2023-02-20T06:49:37.948Z,3.64
2023-02-20T06:52:04.412Z,3.60
2023-02-20T06:54:30.599Z,3.62
2023-02-20T06:56:56.823Z,3.68
2023-02-20T06:59:23.018Z,3.69
2023-02-20T07:01:49.229Z,3.69
2023-02-20T07:04:15.406Z,3.84
2023-02-20T07:06:41.696Z,3.89
2023-02-20T07:09:09.049Z,4.11
2023-02-20T07:11:35.184Z,4.27
2023-02-20T07:14:02.954Z,4.48
2023-02-20T07:16:29.186Z,4.58
2023-02-20T07:18:55.401Z,4.68
2023-02-20T07:21:21.549Z,4.81
2023-02-20T07:23:47.699Z,4.95
2023-02-20T07:26:16.829Z,5.13
2023-02-20T07:28:42.960Z,5.31
2023-02-20T07:31:09.125Z,5.40
2023-02-20T07:33:35.309Z,5.59
2023-02-20T07:36:01.428Z,5.76
2023-02-20T07:38:27.612Z,5.92
2023-02-20T07:40:53.752Z,6.03
2023-02-20T07:43:19.911Z,6.17
2023-02-20T07:45:46.083Z,6.40
2023-02-20T07:48:12.306Z,6.62
2023-02-20T07:50:38.497Z,6.62
2023-02-20T07:53:04.665Z,6.75
2023-02-20T07:55:30.814Z,6.90
2023-02-20T07:57:57.000Z,7.06
2023-02-20T08:00:23.171Z,7.22
2023-02-20T08:02:49.392Z,7.35
2023-02-20T08:05:15.607Z,7.50
2023-02-20T08:07:41.875Z,7.59
2023-02-20T08:10:09.989Z,7.78
2023-02-20T08:12:36.181Z,7.97
2023-02-20T08:15:02.304Z,8.17
2023-02-20T08:17:44.204Z,8.48
2023-02-20T08:20:11.636Z,8.90
2023-02-20T08:22:41.841Z,9.08
2023-02-20T08:25:08.519Z,9.43
2023-02-20T08:27:34.666Z,9.66
2023-02-20T08:30:00.827Z,10.12
2023-02-20T08:32:27.154Z,10.26
2023-02-20T08:34:53.365Z,10.47
2023-02-20T08:37:19.535Z,10.84
2023-02-20T08:39:45.802Z,11.20
2023-02-20T08:42:11.992Z,11.61
2023-02-20T08:44:38.170Z,11.48
2023-02-20T08:47:04.353Z,11.84
2023-02-20T08:49:30.585Z,11.88
2023-02-20T08:51:56.826Z,11.33
2023-02-20T08:54:23.000Z,10.89
2023-02-20T08:56:49.171Z,10.83
2023-02-20T08:59:15.339Z,10.48
2023-02-20T09:01:41.521Z,10.26
2023-02-20T09:04:07.748Z,10.59
2023-02-20T09:06:33.948Z,10.73
2023-02-20T09:09:00.085Z,10.61
2023-02-20T09:11:26.386Z,10.48
2023-02-20T09:13:52.689Z,10.24
2023-02-20T09:16:18.857Z,10.12
2023-02-20T09:18:45.034Z,10.20
2023-02-20T09:21:11.211Z,10.11
2023-02-20T09:23:37.440Z,10.20
2023-02-20T09:26:03.647Z,10.05
2023-02-20T09:28:29.830Z,9.98
2023-02-20T09:30:56.015Z,10.04
2023-02-20T09:33:22.179Z,10.22
2023-02-20T09:35:48.328Z,10.48
2023-02-20T09:38:14.497Z,10.48
2023-02-20T09:40:40.727Z,10.64
2023-02-20T09:43:06.906Z,10.88
2023-02-20T09:45:33.100Z,11.28
2023-02-20T09:47:59.282Z,12.07
2023-02-20T09:50:25.474Z,12.78
2023-02-20T09:52:51.625Z,13.31
2023-02-20T09:55:17.829Z,12.72
2023-02-20T09:57:43.960Z,12.71
2023-02-20T10:00:10.110Z,12.59
2023-02-20T10:02:36.378Z,12.84
2023-02-20T10:05:02.589Z,13.05
2023-02-20T10:07:28.759Z,12.82
2023-02-20T10:09:54.927Z,12.33
2023-02-20T10:12:21.100Z,13.40
2023-02-20T10:14:47.309Z,14.90
2023-02-20T10:17:13.470Z,15.60
2023-02-20T10:19:39.699Z,15.87
2023-02-20T10:22:05.914Z,15.78
2023-02-20T10:24:32.127Z,14.91
2023-02-20T10:26:58.299Z,15.12
2023-02-20T10:29:24.516Z,14.73
2023-02-20T10:31:50.736Z,15.52
2023-02-20T10:34:17.568Z,16.01
2023-02-20T10:36:43.783Z,16.44
2023-02-20T10:39:09.975Z,16.07
2023-02-20T10:41:39.039Z,16.38
2023-02-20T10:44:05.220Z,15.94
2023-02-20T10:46:48.305Z,16.29
2023-02-20T10:49:15.333Z,17.30
2023-02-20T10:51:41.558Z,17.70
2023-02-20T10:54:07.713Z,17.39
2023-02-20T10:56:33.909Z,16.87
2023-02-20T10:59:00.106Z,17.41
2023-02-20T11:01:26.363Z,17.77
2023-02-20T11:03:52.599Z,17.96
2023-02-20T11:06:21.199Z,17.69
2023-02-20T11:08:47.421Z,17.28
2023-02-20T11:11:13.942Z,16.79
2023-02-20T11:13:40.220Z,16.99
2023-02-20T11:16:06.480Z,16.91
2023-02-20T11:18:33.315Z,16.57
2023-02-20T11:20:59.449Z,17.52
2023-02-20T11:23:25.653Z,17.17
2023-02-20T11:25:51.831Z,17.27
2023-02-20T11:28:18.047Z,17.43
2023-02-20T11:30:44.285Z,18.33
2023-02-20T11:33:10.487Z,17.41
2023-02-20T11:35:36.690Z,18.14
2023-02-20T11:38:02.835Z,18.73
2023-02-20T11:40:29.036Z,19.34
2023-02-20T11:42:55.213Z,18.58
2023-02-20T11:45:21.356Z,17.51
2023-02-20T11:47:47.562Z,17.41
2023-02-20T11:50:19.585Z,17.76
2023-02-20T11:52:46.522Z,16.97
2023-02-20T11:55:12.669Z,16.09
2023-02-20T11:57:38.829Z,16.23
2023-02-20T12:00:05.113Z,15.74
2023-02-20T12:02:31.283Z,15.54
2023-02-20T12:04:57.482Z,15.40
2023-02-20T12:12:53.896Z,15.30
2023-02-20T12:15:20.106Z,15.27
2023-02-20T12:17:46.247Z,15.32
2023-02-20T12:20:12.450Z,15.49
2023-02-20T12:22:38.670Z,15.41
2023-02-20T12:25:04.816Z,15.16
2023-02-20T12:27:30.997Z,14.95
2023-02-20T12:29:57.148Z,15.05
2023-02-20T12:32:23.381Z,15.03
2023-02-20T12:34:49.562Z,15.08
2023-02-20T12:37:15.808Z,15.09
2023-02-20T12:39:42.035Z,15.21
2023-02-20T12:42:08.261Z,15.28
2023-02-20T12:44:34.411Z,15.48
2023-02-20T12:47:00.639Z,15.37
2023-02-20T12:49:26.853Z,15.49
2023-02-20T12:51:53.012Z,15.36
2023-02-20T12:54:19.211Z,15.37
2023-02-20T12:56:45.412Z,15.47
2023-02-20T12:59:11.591Z,15.52
2023-02-20T13:01:40.552Z,15.78
2023-02-20T13:04:07.036Z,15.77
2023-02-20T13:06:33.234Z,15.63
2023-02-20T13:08:59.386Z,15.76
2023-02-20T13:11:25.611Z,15.92
2023-02-20T13:13:51.805Z,16.10
2023-02-20T13:16:18.002Z,15.93
2023-02-20T13:18:44.119Z,15.82
2023-02-20T13:21:10.270Z,15.77
2023-02-20T13:23:36.522Z,15.70
2023-02-20T13:26:02.745Z,15.81
2023-02-20T13:28:28.933Z,15.84
2023-02-20T13:30:55.137Z,15.84
2023-02-20T13:33:21.312Z,15.92
2023-02-20T13:35:47.519Z,15.84
2023-02-20T13:38:13.731Z,15.89
2023-02-20T13:40:39.965Z,16.01
2023-02-20T13:43:06.211Z,15.96
2023-02-20T13:45:32.388Z,15.99
2023-02-20T13:47:58.589Z,16.21
2023-02-20T13:50:24.795Z,16.32
2023-02-20T13:52:51.000Z,16.07
2023-02-20T13:55:17.182Z,16.35
2023-02-20T13:57:43.333Z,16.31
2023-02-20T14:00:09.554Z,16.13
2023-02-20T14:02:35.723Z,16.06
2023-02-20T14:05:02.132Z,16.36
2023-02-20T14:07:28.509Z,16.22
2023-02-20T14:09:54.644Z,16.25
2023-02-20T14:12:20.808Z,16.12
2023-02-20T14:14:46.946Z,16.25
2023-02-20T14:17:13.108Z,16.27
2023-02-20T14:19:39.326Z,16.21
2023-02-20T14:22:05.553Z,16.23
2023-02-20T14:24:31.767Z,16.06
2023-02-20T14:26:57.926Z,16.09
2023-02-20T14:29:24.138Z,16.16
2023-02-20T14:31:50.438Z,16.36
2023-02-20T14:34:16.591Z,16.43
2023-02-20T14:36:42.740Z,16.41
2023-02-20T14:39:08.982Z,16.49
2023-02-20T14:41:35.178Z,16.27
2023-02-20T14:44:01.397Z,16.31
2023-02-20T14:46:27.540Z,16.43
2023-02-20T14:48:53.679Z,16.49
2023-02-20T14:51:19.878Z,16.67
2023-02-20T14:53:46.061Z,17.01
2023-02-20T14:56:12.585Z,17.16
2023-02-20T14:58:38.906Z,17.61
2023-02-20T15:01:05.066Z,17.68
2023-02-20T15:03:31.832Z,18.26
2023-02-20T15:05:58.138Z,18.80
2023-02-20T15:08:24.343Z,18.92
2023-02-20T15:10:50.556Z,19.31
2023-02-20T15:13:19.470Z,19.06
2023-02-20T15:15:45.666Z,19.39
2023-02-20T15:18:11.883Z,18.95
2023-02-20T15:20:38.031Z,19.43
2023-02-20T15:23:14.777Z,19.43
2023-02-20T15:25:41.525Z,19.67
2023-02-20T15:28:07.708Z,19.30
2023-02-20T15:30:33.985Z,19.44
2023-02-20T15:33:00.367Z,19.49
2023-02-20T15:35:26.528Z,18.98
2023-02-20T15:37:52.916Z,18.92
2023-02-20T15:40:19.073Z,18.50
2023-02-20T15:42:45.259Z,18.83
2023-02-20T15:45:11.437Z,18.63
2023-02-20T15:47:37.596Z,18.23
2023-02-20T15:50:03.768Z,18.10
2023-02-20T15:52:29.955Z,17.56
2023-02-20T15:54:56.408Z,17.06
2023-02-20T15:57:22.622Z,16.26
2023-02-20T15:59:49.106Z,15.44
2023-02-20T16:02:15.449Z,14.89
2023-02-20T16:04:41.736Z,14.55
2023-02-20T16:07:07.957Z,14.35
2023-02-20T16:09:34.172Z,14.27
2023-02-20T16:12:00.529Z,14.10
2023-02-20T16:14:26.722Z,14.07
2023-02-20T16:16:52.971Z,13.97
2023-02-20T16:19:19.199Z,13.86
2023-02-20T16:21:58.061Z,13.82
2023-02-20T16:24:25.168Z,13.68
2023-02-20T16:26:51.339Z,13.53
2023-02-20T16:29:17.536Z,13.53
2023-02-20T16:31:43.760Z,13.39
2023-02-20T16:34:20.190Z,13.30
2023-02-20T16:36:47.953Z,13.25
2023-02-20T16:39:24.637Z,13.05
2023-02-20T16:41:52.349Z,13.00
2023-02-20T16:44:18.538Z,12.88
2023-02-20T16:46:45.010Z,12.79
2023-02-20T16:49:11.288Z,12.71
2023-02-20T16:51:37.437Z,12.55
2023-02-20T16:54:03.606Z,12.59
2023-02-20T16:56:29.743Z,12.50
2023-02-20T16:58:55.892Z,12.52
2023-02-20T17:01:22.129Z,12.46
2023-02-20T17:03:48.412Z,12.40
2023-02-20T17:06:14.590Z,12.32
2023-02-20T17:08:40.752Z,12.20
2023-02-20T17:11:06.949Z,12.04
2023-02-20T17:13:33.149Z,11.96
2023-02-20T17:15:59.330Z,11.71
2023-02-20T17:18:25.522Z,11.49
2023-02-20T17:20:51.694Z,11.33
2023-02-20T17:23:17.897Z,11.26
2023-02-20T17:25:44.122Z,11.22
2023-02-20T17:28:10.325Z,11.15
2023-02-20T17:30:36.631Z,11.02
2023-02-20T17:33:02.861Z,11.00
2023-02-20T17:35:29.021Z,11.04
2023-02-20T17:37:55.222Z,11.06
2023-02-20T17:40:21.442Z,11.02
2023-02-20T17:42:47.614Z,10.85
2023-02-20T17:45:13.768Z,10.64
2023-02-20T17:47:39.915Z,10.45
2023-02-20T17:50:06.102Z,10.24
2023-02-20T17:52:32.300Z,10.10
2023-02-20T17:54:58.426Z,10.00
2023-02-20T17:57:24.622Z,9.79
2023-02-20T17:59:50.793Z,9.78
2023-02-20T18:02:16.985Z,9.69
2023-02-20T18:04:43.195Z,9.68
2023-02-20T18:07:09.400Z,9.55
2023-02-20T18:09:35.526Z,9.46
2023-02-20T18:12:01.799Z,9.26
2023-02-20T18:14:27.994Z,9.22
2023-02-20T18:16:54.191Z,9.12
2023-02-20T18:19:20.331Z,9.02
2023-02-20T18:21:46.549Z,8.89
2023-02-20T18:24:12.765Z,8.79
2023-02-20T18:26:38.961Z,8.85
2023-02-20T18:29:05.150Z,8.65
2023-02-20T18:31:31.399Z,8.51
2023-02-20T18:33:57.649Z,8.42
2023-02-20T18:36:24.128Z,8.38
2023-02-20T18:38:50.631Z,8.38
2023-02-20T18:41:16.766Z,8.40
2023-02-20T18:43:42.927Z,8.36
2023-02-20T18:46:09.207Z,8.41
2023-02-20T18:48:35.467Z,8.41
2023-02-20T18:51:01.655Z,8.25
2023-02-20T18:53:27.880Z,8.22
2023-02-20T18:55:54.022Z,8.10
2023-02-20T18:58:20.284Z,7.99
2023-02-20T19:00:46.512Z,8.01
2023-02-20T19:03:12.708Z,7.93
2023-02-20T19:05:38.964Z,7.87
2023-02-20T19:08:05.147Z,8.00
2023-02-20T19:10:31.318Z,7.87
2023-02-20T19:12:57.605Z,7.82
2023-02-20T19:15:23.796Z,7.70
2023-02-20T19:17:49.960Z,7.56
2023-02-20T19:20:16.128Z,7.51
2023-02-20T19:22:42.299Z,7.38
2023-02-20T19:25:08.471Z,7.28
2023-02-20T19:27:34.775Z,7.27
2023-02-20T19:30:00.921Z,7.20
2023-02-20T19:32:27.159Z,7.06
2023-02-20T19:34:53.369Z,7.02
2023-02-20T19:37:19.535Z,7.01
2023-02-20T19:39:45.736Z,6.92
2023-02-20T19:42:11.913Z,6.81
2023-02-20T19:44:38.106Z,6.79
2023-02-20T19:47:04.310Z,6.72
2023-02-20T19:49:30.503Z,6.61
2023-02-20T19:51:56.673Z,6.56
2023-02-20T19:54:22.871Z,6.60
2023-02-20T19:56:49.050Z,6.53
2023-02-20T19:59:15.249Z,6.63
2023-02-20T20:01:41.429Z,6.59
2023-02-20T20:04:07.578Z,6.61
2023-02-20T20:06:33.734Z,6.66
2023-02-20T20:09:13.495Z,6.65
2023-02-20T20:11:42.713Z,6.72
2023-02-20T20:14:08.896Z,6.65
2023-02-20T20:16:35.080Z,6.61
2023-02-20T20:19:01.265Z,6.60
2023-02-20T20:21:27.412Z,6.56
2023-02-20T20:23:53.618Z,6.48
2023-02-20T20:26:19.774Z,6.36
2023-02-20T20:28:45.926Z,6.28
2023-02-20T20:31:12.542Z,6.17
2023-02-20T20:33:38.907Z,6.05
2023-02-20T20:42:14.718Z,5.80
2023-02-20T20:44:37.905Z,5.71
2023-02-20T20:47:04.061Z,5.60
2023-02-20T20:49:30.248Z,5.59
2023-02-20T20:51:56.460Z,5.47
2023-02-20T20:54:22.657Z,5.41
2023-02-20T20:56:48.863Z,5.38
2023-02-20T20:59:15.012Z,5.33
2023-02-20T21:01:41.151Z,5.32
2023-02-20T21:04:07.404Z,5.28
2023-02-20T21:06:33.594Z,5.26
2023-02-20T21:08:59.736Z,5.26
2023-02-20T21:11:25.923Z,5.20
2023-02-20T21:13:52.094Z,5.15
2023-02-20T21:16:18.240Z,5.15
2023-02-20T21:18:44.379Z,5.12
2023-02-20T21:21:10.491Z,5.03
2023-02-20T21:23:36.694Z,4.95
2023-02-20T21:26:02.876Z,4.88
2023-02-20T21:28:29.059Z,4.86
2023-02-20T21:30:55.273Z,4.78
2023-02-20T21:33:21.478Z,4.75
2023-02-20T21:35:47.613Z,4.72
2023-02-20T21:38:13.767Z,4.64
2023-02-20T21:40:39.904Z,4.58
2023-02-20T21:43:06.125Z,4.51
2023-02-20T21:45:32.250Z,4.44
2023-02-20T21:47:58.484Z,4.42
2023-02-20T21:50:24.666Z,4.43
2023-02-20T21:52:50.811Z,4.63
2023-02-20T21:55:16.983Z,4.53
2023-02-20T21:57:43.160Z,4.49
2023-02-20T22:00:09.331Z,4.40
2023-02-20T22:02:35.515Z,4.43
2023-02-20T22:05:01.687Z,4.37
2023-02-20T22:07:27.818Z,4.31
2023-02-20T22:09:54.002Z,4.30
2023-02-20T22:12:20.160Z,4.28
2023-02-20T22:14:46.334Z,4.28
2023-02-20T22:17:12.527Z,4.26
2023-02-20T22:19:38.693Z,4.23
2023-02-20T22:22:04.826Z,4.29
2023-02-20T22:24:38.097Z,4.28
2023-02-20T22:27:04.917Z,4.29
2023-02-20T22:29:31.063Z,4.29
2023-02-20T22:31:57.296Z,4.34
2023-02-20T22:34:23.593Z,4.53
2023-02-20T22:36:49.726Z,4.57
2023-02-20T22:39:15.887Z,4.59
2023-02-20T22:41:42.008Z,4.62
2023-02-20T22:44:08.228Z,4.72
2023-02-20T22:46:34.459Z,4.71
2023-02-20T22:49:00.696Z,4.69
2023-02-20T22:51:26.883Z,4.68
2023-02-20T22:53:53.042Z,4.68
2023-02-20T22:56:19.242Z,4.62
2023-02-20T22:58:45.404Z,4.60
2023-02-20T23:01:11.965Z,4.50
2023-02-20T23:03:38.369Z,4.45
2023-02-20T23:06:15.274Z,4.38
2023-02-20T23:08:43.484Z,4.26
2023-02-20T23:11:09.661Z,4.20
2023-02-20T23:13:35.799Z,4.10
2023-02-20T23:16:01.936Z,4.01
2023-02-20T23:18:28.096Z,3.93
2023-02-20T23:20:54.283Z,3.85
2023-02-20T23:23:20.397Z,3.76
2023-02-20T23:25:46.566Z,3.71
2023-02-20T23:28:12.712Z,3.69
2023-02-20T23:30:38.969Z,3.60
2023-02-20T23:33:05.395Z,3.56
2023-02-20T23:35:31.612Z,3.51
2023-02-20T23:37:57.803Z,3.46
2023-02-20T23:40:30.865Z,3.44
2023-02-20T23:43:00.942Z,3.39
2023-02-20T23:45:27.191Z,3.35
2023-02-20T23:47:53.363Z,3.31
2023-02-20T23:50:19.561Z,3.24
2023-02-20T23:52:45.752Z,3.22
2023-02-20T23:55:11.872Z,3.19
2023-02-20T23:57:38.014Z,3.19
